NZWN Airport Information

Runway Information
Runway 16 Length 6352 ft width 148 ft
Elevation 41 ft Threshold 210 ft Heading 183
Runway 34 Length 6352 ft Width 148 ft
Elevation 23 ft Threshold 210 ft Heading 3
Airport Frequencies
Type APP Name APP Frequency 122.3 MHZ
Type ATIS Name ATIS Frequency 126.9 MHZ
Type GND Name GND Frequency 121.9 MHZ
Type TWR Name TWR Frequency 118.8 MHZ
Airport Navaids
Type NDB Name Newlands Frequency 358 KHZ
Type NDB Name Titahi Bay Frequency 234 KHZ
Type VOR-DME Name Wellington Frequency 112300 KHZ
Type NDB Name Wellington Frequency 298 KHZ
Airport Weather Information & NOTAM
ADDS - METARS form results

(1952 UTC 22 July 2018)
 
METAR text: NZWN 221930Z AUTO 33013KT 9999 NCD 10/04 Q1008 NOSIG
Conditions at: NZWN (WELLINGTON INTL , NZ) observed 1930 UTC 22 July 2018
Temperature: 10.0°C (50°F)
Dewpoint: 4.0°C (39°F) [RH = 66%]
Pressure (altimeter): 29.76 inches Hg (1008.0 mb)
Winds: from the NNW (330 degrees) at 15 MPH (13 knots; 6.8 m/s)
Visibility: 6 or more miles (10+ km)
Ceiling: at least 12,000 feet AGL
Clouds: sky clear below 12,000 feet AGL
Weather: no significant weather observed at this time

METAR text: NZWN 221900Z AUTO 34010KT 300V010 9999 NCD 10/04 Q1008 NOSIG
Conditions at: NZWN (WELLINGTON INTL , NZ) observed 1900 UTC 22 July 2018
Temperature: 10.0°C (50°F)
Dewpoint: 4.0°C (39°F) [RH = 66%]
Pressure (altimeter): 29.76 inches Hg (1008.0 mb)
Winds: from the NNW (340 degrees) at 12 MPH (10 knots; 5.2 m/s)
Visibility: 6 or more miles (10+ km)
Ceiling: at least 12,000 feet AGL
Clouds: sky clear below 12,000 feet AGL
Weather: no significant weather observed at this time